createdAt,value
2018-05-08T00:01:21.701Z,15.60
2018-05-08T00:03:53.982Z,15.60
2018-05-08T00:06:26.253Z,15.70
2018-05-08T00:08:58.767Z,15.60
2018-05-08T00:11:31.106Z,15.60
2018-05-08T00:14:03.499Z,15.50
2018-05-08T00:16:36.646Z,15.50
2018-05-08T00:19:08.987Z,15.30
2018-05-08T00:21:41.296Z,15.40
2018-05-08T00:24:13.623Z,15.40
2018-05-08T00:26:45.945Z,15.40
2018-05-08T00:29:18.319Z,15.30
2018-05-08T00:31:50.583Z,15.30
2018-05-08T00:34:22.933Z,15.20
2018-05-08T00:36:55.378Z,15.10
2018-05-08T00:39:28.529Z,15.10
2018-05-08T00:42:00.892Z,15.10
2018-05-08T00:44:33.235Z,15.10
2018-05-08T00:47:05.524Z,15.00
2018-05-08T00:49:38.603Z,15.00
2018-05-08T00:52:11.708Z,14.80
2018-05-08T00:54:56.346Z,14.80
2018-05-08T00:57:28.685Z,14.70
2018-05-08T01:00:01.911Z,14.40
2018-05-08T01:02:34.218Z,14.40
2018-05-08T01:05:06.550Z,14.30
2018-05-08T01:07:38.793Z,14.20
2018-05-08T01:10:11.872Z,14.00
2018-05-08T01:12:44.978Z,13.90
2018-05-08T01:15:18.277Z,13.90
2018-05-08T01:17:50.540Z,13.90
2018-05-08T01:20:22.952Z,13.80
2018-05-08T01:22:55.361Z,13.70
2018-05-08T01:25:27.844Z,13.60
2018-05-08T01:28:00.253Z,13.50
2018-05-08T01:30:32.562Z,13.40
2018-05-08T01:33:04.986Z,13.30
2018-05-08T01:35:37.281Z,13.30
2018-05-08T01:38:09.634Z,13.30
2018-05-08T01:40:42.083Z,13.20
2018-05-08T01:43:15.204Z,13.20
2018-05-08T01:45:47.477Z,13.10
2018-05-08T01:48:19.882Z,13.10
2018-05-08T01:50:52.228Z,13.10
2018-05-08T01:53:24.525Z,13.00
2018-05-08T01:55:56.938Z,12.90
2018-05-08T01:58:30.031Z,12.80
2018-05-08T02:01:03.211Z,12.70
2018-05-08T02:03:35.657Z,12.70
2018-05-08T02:06:07.952Z,12.60
2018-05-08T02:08:40.212Z,12.50
2018-05-08T02:11:12.569Z,12.40
2018-05-08T02:13:44.828Z,12.40
2018-05-08T02:16:17.257Z,12.40
2018-05-08T02:18:49.685Z,12.50
2018-05-08T02:21:22.005Z,12.50
2018-05-08T02:23:55.157Z,12.50
2018-05-08T02:26:27.551Z,12.40
2018-05-08T02:28:59.902Z,12.50
2018-05-08T02:31:32.412Z,12.50
2018-05-08T02:34:05.475Z,12.60
2018-05-08T02:36:37.713Z,12.60
2018-05-08T02:39:10.035Z,12.70
2018-05-08T02:41:43.226Z,12.60
2018-05-08T02:44:16.377Z,12.70
2018-05-08T02:46:48.776Z,12.70
2018-05-08T02:49:21.019Z,12.90
2018-05-08T02:51:53.368Z,13.00
2018-05-08T02:54:25.796Z,13.20
2018-05-08T02:56:58.263Z,13.20
2018-05-08T02:59:30.617Z,13.30
2018-05-08T03:02:03.030Z,13.20
2018-05-08T03:04:36.204Z,13.30
2018-05-08T03:07:08.599Z,13.30
2018-05-08T03:09:40.972Z,13.30
2018-05-08T03:12:13.341Z,13.30
2018-05-08T03:14:46.482Z,13.30
2018-05-08T03:17:18.929Z,13.30
2018-05-08T03:19:51.255Z,13.30
2018-05-08T03:22:23.608Z,13.30
2018-05-08T03:24:55.923Z,13.40
2018-05-08T03:27:29.043Z,13.40
2018-05-08T03:30:01.412Z,13.40
2018-05-08T03:32:33.906Z,13.30
2018-05-08T03:35:06.245Z,13.30
2018-05-08T03:37:38.555Z,13.40
2018-05-08T03:40:10.889Z,13.50
2018-05-08T03:42:43.247Z,13.50
2018-05-08T03:45:16.378Z,13.50
2018-05-08T03:47:48.819Z,13.50
2018-05-08T03:50:21.897Z,13.30
2018-05-08T03:52:55.002Z,13.30
2018-05-08T03:55:27.366Z,13.20
2018-05-08T03:58:00.567Z,13.30
2018-05-08T04:00:45.439Z,13.30
2018-05-08T04:03:38.110Z,13.40
2018-05-08T04:09:32.170Z,13.40
2018-05-08T04:12:05.231Z,13.50
2018-05-08T04:14:37.666Z,13.50
2018-05-08T04:17:09.949Z,13.60
2018-05-08T04:19:42.282Z,13.60
2018-05-08T04:22:14.575Z,13.60
2018-05-08T04:24:46.924Z,13.60
2018-05-08T04:27:20.271Z,13.70
2018-05-08T04:29:53.359Z,13.70
2018-05-08T04:32:25.656Z,13.70
2018-05-08T04:34:58.738Z,13.80
2018-05-08T04:37:31.047Z,13.80
2018-05-08T04:40:04.178Z,13.90
2018-05-08T04:42:37.319Z,13.80
2018-05-08T04:45:10.407Z,13.90
2018-05-08T04:47:43.444Z,14.00
2018-05-08T04:50:15.880Z,14.10
2018-05-08T04:52:48.264Z,14.00
2018-05-08T04:55:20.691Z,14.00
2018-05-08T04:57:53.731Z,14.10
2018-05-08T05:00:26.130Z,14.10
2018-05-08T05:02:58.533Z,14.10
2018-05-08T05:05:30.873Z,14.20
2018-05-08T05:08:03.189Z,14.30
2018-05-08T05:10:36.337Z,14.30
2018-05-08T05:13:08.703Z,14.30
2018-05-08T05:15:41.101Z,14.40
2018-05-08T05:18:13.422Z,14.50
2018-05-08T05:20:45.788Z,14.60
2018-05-08T05:23:18.204Z,14.60
2018-05-08T05:25:50.632Z,14.70
2018-05-08T05:28:22.970Z,14.70
2018-05-08T05:30:55.345Z,14.70
2018-05-08T05:33:27.592Z,14.80
2018-05-08T05:35:59.890Z,14.80
2018-05-08T05:38:32.246Z,14.90
2018-05-08T05:41:04.555Z,14.90
2018-05-08T05:43:37.723Z,15.10
2018-05-08T05:46:10.080Z,15.00
2018-05-08T05:48:43.289Z,15.10
2018-05-08T05:51:15.553Z,15.10
2018-05-08T05:53:47.889Z,15.20
2018-05-08T05:56:20.231Z,15.30
2018-05-08T05:58:52.605Z,15.30
2018-05-08T06:01:24.946Z,15.40
2018-05-08T06:03:57.223Z,15.50
2018-05-08T06:06:30.263Z,15.70
2018-05-08T06:09:02.665Z,15.70
2018-05-08T06:11:35.098Z,15.80
2018-05-08T06:14:08.130Z,16.00
2018-05-08T06:16:40.512Z,16.00
2018-05-08T06:19:12.906Z,16.20
2018-05-08T06:21:46.099Z,16.50
2018-05-08T06:24:19.139Z,16.60
2018-05-08T06:26:51.442Z,16.60
2018-05-08T06:29:23.802Z,16.80
2018-05-08T06:31:56.138Z,17.10
2018-05-08T06:34:28.493Z,18.00
2018-05-08T06:37:00.825Z,19.10
2018-05-08T06:39:33.956Z,20.50
2018-05-08T06:42:06.271Z,20.40
2018-05-08T06:44:38.531Z,21.30
2018-05-08T06:47:11.732Z,22.40
2018-05-08T06:49:44.014Z,22.40
2018-05-08T06:52:16.382Z,22.90
2018-05-08T06:54:48.768Z,22.90
2018-05-08T06:57:21.589Z,22.70
2018-05-08T06:59:53.972Z,23.20
2018-05-08T07:02:26.300Z,23.60
2018-05-08T07:04:58.626Z,23.70
2018-05-08T07:07:30.996Z,23.30
2018-05-08T07:10:03.268Z,24.00
2018-05-08T07:12:35.604Z,23.50
2018-05-08T07:15:07.910Z,24.10
2018-05-08T07:17:40.323Z,24.10
2018-05-08T07:20:12.684Z,24.80
2018-05-08T07:22:45.062Z,24.60
2018-05-08T07:25:17.351Z,24.20
2018-05-08T07:27:50.700Z,25.40
2018-05-08T07:30:23.009Z,25.40
2018-05-08T07:32:56.032Z,26.90
2018-05-08T07:35:28.316Z,26.90
2018-05-08T07:38:00.756Z,27.10
2018-05-08T07:40:33.931Z,27.50
2018-05-08T07:43:06.319Z,27.60
2018-05-08T07:45:39.375Z,27.80
2018-05-08T07:48:11.735Z,27.80
2018-05-08T07:50:44.002Z,28.50
2018-05-08T07:53:16.431Z,28.40
2018-05-08T07:55:48.691Z,28.20
2018-05-08T07:58:21.799Z,29.00
2018-05-08T08:00:54.124Z,29.00
2018-05-08T08:03:26.543Z,28.90
2018-05-08T08:05:58.858Z,29.00
2018-05-08T08:08:31.251Z,28.40
2018-05-08T08:11:03.603Z,29.20
2018-05-08T08:13:35.959Z,29.70
2018-05-08T08:16:08.289Z,29.30
2018-05-08T08:18:41.378Z,29.60
2018-05-08T08:21:14.425Z,29.20
2018-05-08T08:23:46.957Z,29.20
2018-05-08T08:26:19.278Z,29.60
2018-05-08T08:28:51.687Z,30.00
2018-05-08T08:31:24.706Z,29.80
2018-05-08T08:33:57.044Z,29.80
2018-05-08T08:36:30.069Z,29.60
2018-05-08T08:39:02.435Z,29.60
2018-05-08T08:41:34.683Z,29.80
2018-05-08T08:44:06.975Z,30.00
2018-05-08T08:46:39.295Z,30.10
2018-05-08T08:49:11.627Z,30.00
2018-05-08T08:51:43.881Z,30.60
2018-05-08T08:54:16.180Z,31.30
2018-05-08T08:56:48.585Z,31.30
2018-05-08T08:59:20.956Z,31.90
2018-05-08T09:01:53.298Z,32.00
2018-05-08T09:04:25.702Z,31.90
2018-05-08T09:06:58.035Z,31.80
2018-05-08T09:09:30.401Z,32.40
2018-05-08T09:12:02.750Z,31.60
2018-05-08T09:14:36.011Z,31.20
2018-05-08T09:17:08.293Z,31.20
2018-05-08T09:19:40.663Z,30.70
2018-05-08T09:22:12.981Z,30.70
2018-05-08T09:24:45.412Z,31.20
2018-05-08T09:27:17.698Z,31.50
2018-05-08T09:29:50.047Z,32.20
2018-05-08T09:32:22.497Z,31.70
2018-05-08T09:34:54.871Z,31.60
2018-05-08T09:37:27.214Z,31.90
2018-05-08T09:39:59.497Z,32.30
2018-05-08T09:42:31.845Z,32.60
2018-05-08T09:45:04.147Z,32.90
2018-05-08T09:47:36.467Z,33.10
2018-05-08T09:50:09.548Z,32.90
2018-05-08T09:52:42.661Z,32.20
2018-05-08T09:55:15.128Z,32.20
2018-05-08T09:57:48.174Z,30.30
2018-05-08T10:00:20.585Z,30.30
2018-05-08T10:02:52.896Z,29.70
2018-05-08T10:05:25.240Z,29.10
2018-05-08T10:07:57.592Z,28.60
2018-05-08T10:10:30.769Z,27.70
2018-05-08T10:13:03.144Z,27.70
2018-05-08T10:15:35.493Z,27.70
2018-05-08T10:18:07.849Z,27.70
2018-05-08T10:20:40.357Z,27.40
2018-05-08T10:23:12.611Z,27.30
2018-05-08T10:25:44.997Z,27.00
2018-05-08T10:28:17.275Z,27.00
2018-05-08T10:30:49.595Z,27.10
2018-05-08T10:33:21.996Z,27.00
2018-05-08T10:35:54.317Z,27.00
2018-05-08T10:38:26.722Z,27.30
2018-05-08T10:40:59.018Z,27.20
2018-05-08T10:43:31.325Z,27.00
2018-05-08T10:46:04.410Z,27.20
2018-05-08T10:48:37.425Z,27.30
2018-05-08T10:51:09.759Z,27.30
2018-05-08T10:53:42.888Z,27.50
2018-05-08T10:56:15.233Z,27.50
2018-05-08T10:58:47.571Z,27.50
2018-05-08T11:01:19.957Z,27.40
2018-05-08T11:03:52.362Z,27.50
2018-05-08T11:06:25.446Z,27.30
2018-05-08T11:08:58.557Z,27.50
2018-05-08T11:11:30.993Z,27.50
2018-05-08T11:14:03.283Z,27.50
2018-05-08T11:16:36.478Z,27.40
2018-05-08T11:19:08.779Z,27.40
2018-05-08T11:21:41.190Z,27.30
2018-05-08T11:24:13.578Z,27.20
2018-05-08T11:26:46.034Z,27.30
2018-05-08T11:29:18.317Z,27.00
2018-05-08T11:31:50.642Z,27.10
2018-05-08T11:34:22.971Z,27.20
2018-05-08T11:36:55.302Z,27.20
2018-05-08T11:39:27.689Z,27.30
2018-05-08T11:42:00.046Z,27.30
2018-05-08T11:44:32.392Z,27.30
2018-05-08T11:47:04.757Z,27.30
2018-05-08T11:49:37.056Z,27.00
2018-05-08T11:52:09.487Z,26.80
2018-05-08T11:54:42.631Z,26.60
2018-05-08T11:57:14.929Z,26.60
2018-05-08T11:59:47.399Z,26.50
2018-05-08T12:02:19.731Z,26.70
2018-05-08T12:04:52.021Z,26.80
2018-05-08T12:07:24.389Z,26.80
2018-05-08T12:09:56.788Z,26.80
2018-05-08T12:12:29.181Z,26.80
2018-05-08T12:15:02.354Z,26.40
2018-05-08T12:17:34.771Z,26.40
2018-05-08T12:20:07.080Z,26.40
2018-05-08T12:22:39.361Z,26.40
2018-05-08T12:25:11.677Z,26.60
2018-05-08T12:27:44.278Z,26.60
2018-05-08T12:30:16.543Z,26.30
2018-05-08T12:32:49.022Z,26.40
2018-05-08T12:35:21.331Z,26.30
2018-05-08T12:37:53.725Z,26.40
2018-05-08T12:40:26.868Z,26.40
2018-05-08T12:42:59.191Z,26.40
2018-05-08T12:45:32.232Z,26.30
2018-05-08T12:48:04.574Z,26.30
2018-05-08T12:50:36.824Z,26.30
2018-05-08T12:53:09.954Z,26.20
2018-05-08T12:55:42.918Z,26.20
2018-05-08T12:58:15.297Z,26.20
2018-05-08T13:00:47.559Z,26.20
2018-05-08T13:03:19.880Z,26.20
2018-05-08T13:05:52.106Z,26.30
2018-05-08T13:08:24.530Z,26.30
2018-05-08T13:10:56.873Z,26.20
2018-05-08T13:13:29.307Z,26.20
2018-05-08T13:16:02.326Z,26.10
2018-05-08T13:18:34.746Z,26.10
2018-05-08T13:21:07.191Z,26.10
2018-05-08T13:23:39.487Z,26.20
2018-05-08T13:26:11.908Z,26.10
2018-05-08T13:28:44.251Z,26.10
2018-05-08T13:31:17.403Z,26.00
2018-05-08T13:33:49.825Z,26.00
2018-05-08T13:36:22.135Z,26.10
2018-05-08T13:38:54.418Z,26.10
2018-05-08T13:41:26.734Z,26.20
2018-05-08T13:43:59.429Z,26.30
2018-05-08T13:46:31.763Z,26.20
2018-05-08T13:49:04.065Z,26.10
2018-05-08T13:51:36.393Z,26.00
2018-05-08T13:54:08.733Z,26.00
2018-05-08T13:56:41.073Z,26.00
2018-05-08T13:59:14.236Z,26.00
2018-05-08T14:01:46.590Z,25.90
2018-05-08T14:04:18.948Z,25.90
2018-05-08T14:06:51.246Z,25.90
2018-05-08T14:09:23.550Z,25.90
2018-05-08T14:11:56.704Z,25.80
2018-05-08T14:14:29.088Z,25.80
2018-05-08T14:17:01.464Z,25.90
2018-05-08T14:19:33.805Z,25.90
2018-05-08T14:22:06.210Z,26.00
2018-05-08T14:24:38.578Z,25.90
2018-05-08T14:27:10.885Z,25.80
2018-05-08T14:29:43.385Z,25.80
2018-05-08T14:32:15.743Z,25.80
2018-05-08T14:34:48.080Z,25.70
2018-05-08T14:37:21.085Z,25.70
2018-05-08T14:39:53.549Z,25.70
2018-05-08T14:42:26.597Z,25.80
2018-05-08T14:44:59.027Z,25.70
2018-05-08T14:47:32.143Z,25.60
2018-05-08T14:50:04.522Z,25.60
2018-05-08T14:52:36.861Z,25.50
2018-05-08T14:55:09.343Z,25.50
2018-05-08T14:57:41.667Z,25.50
2018-05-08T15:00:14.049Z,25.50
2018-05-08T15:02:46.465Z,25.50
2018-05-08T15:05:18.914Z,25.50
2018-05-08T15:07:52.015Z,25.50
2018-05-08T15:10:26.094Z,25.50
2018-05-08T15:12:58.384Z,25.40
2018-05-08T15:15:30.753Z,25.30
2018-05-08T15:18:03.112Z,25.40
2018-05-08T15:20:35.546Z,25.40
2018-05-08T15:23:07.780Z,25.40
2018-05-08T15:25:40.839Z,25.40
2018-05-08T15:28:13.113Z,25.40
2018-05-08T15:30:45.471Z,25.40
2018-05-08T15:33:17.857Z,25.50
2018-05-08T15:35:50.286Z,25.50
2018-05-08T15:38:22.655Z,25.40
2018-05-08T15:40:55.024Z,25.50
2018-05-08T15:43:27.317Z,25.50
2018-05-08T15:45:59.827Z,25.40
2018-05-08T15:48:32.114Z,25.30
2018-05-08T15:51:05.350Z,25.30
2018-05-08T15:53:37.634Z,25.30
2018-05-08T15:56:10.104Z,25.30
2018-05-08T15:58:42.409Z,25.20
2018-05-08T16:01:15.037Z,25.30
2018-05-08T16:03:47.304Z,25.20
2018-05-08T16:06:19.621Z,25.20
2018-05-08T16:08:51.907Z,25.20
2018-05-08T16:11:24.374Z,25.20
2018-05-08T16:13:56.526Z,25.20
2018-05-08T16:16:28.847Z,25.10
2018-05-08T16:19:01.171Z,25.10
2018-05-08T16:21:33.493Z,25.10
2018-05-08T16:24:05.835Z,25.10
2018-05-08T16:26:38.180Z,25.10
2018-05-08T16:29:10.518Z,25.00
2018-05-08T16:31:42.949Z,25.00
2018-05-08T16:34:15.301Z,24.90
2018-05-08T16:36:47.705Z,25.00
2018-05-08T16:39:20.038Z,24.90
2018-05-08T16:41:52.437Z,24.90
2018-05-08T16:44:24.841Z,24.90
2018-05-08T16:46:58.154Z,25.00
2018-05-08T16:49:30.452Z,25.00
2018-05-08T16:52:02.904Z,24.90
2018-05-08T16:54:35.424Z,24.90
2018-05-08T16:57:07.809Z,24.80
2018-05-08T16:59:40.132Z,24.70
2018-05-08T17:02:12.553Z,24.70
2018-05-08T17:04:45.778Z,24.60
2018-05-08T17:07:18.112Z,24.50
2018-05-08T17:09:50.693Z,24.60
2018-05-08T17:12:23.053Z,24.60
2018-05-08T17:14:55.426Z,24.50
2018-05-08T17:17:27.788Z,24.50
2018-05-08T17:20:00.173Z,24.40
2018-05-08T17:22:32.521Z,24.50
2018-05-08T17:25:04.797Z,24.40
2018-05-08T17:27:37.067Z,24.30
2018-05-08T17:30:09.449Z,24.30
2018-05-08T17:32:41.838Z,24.30
2018-05-08T17:35:14.180Z,24.20
2018-05-08T17:37:46.522Z,24.20
2018-05-08T17:40:18.829Z,24.10
2018-05-08T17:42:51.173Z,24.10
2018-05-08T17:45:23.473Z,24.00
2018-05-08T17:47:55.852Z,24.00
2018-05-08T17:50:28.262Z,24.00
2018-05-08T17:53:01.439Z,24.00
2018-05-08T17:55:33.890Z,23.90
2018-05-08T17:58:06.180Z,23.90
2018-05-08T18:00:38.412Z,23.90
2018-05-08T18:03:10.779Z,23.90
2018-05-08T18:05:43.047Z,23.80
2018-05-08T18:08:15.372Z,23.80
2018-05-08T18:10:47.792Z,23.70
2018-05-08T18:13:20.130Z,23.60
2018-05-08T18:15:53.256Z,23.50
2018-05-08T18:18:25.723Z,23.50
2018-05-08T18:20:58.070Z,23.50
2018-05-08T18:23:31.230Z,23.40
2018-05-08T18:26:03.583Z,23.40
2018-05-08T18:28:35.876Z,23.30
2018-05-08T18:31:08.265Z,23.30
2018-05-08T18:33:41.453Z,23.00
2018-05-08T18:36:14.568Z,22.90
2018-05-08T18:38:47.581Z,22.90
2018-05-08T18:41:20.281Z,22.90
2018-05-08T18:43:53.189Z,22.80
2018-05-08T18:46:25.828Z,22.80
2018-05-08T18:48:58.305Z,22.70
2018-05-08T18:51:30.920Z,22.70
2018-05-08T18:54:04.089Z,22.50
2018-05-08T18:56:37.348Z,22.40
2018-05-08T18:59:09.988Z,22.40
2018-05-08T19:01:42.594Z,22.40
2018-05-08T19:04:15.112Z,22.20
2018-05-08T19:06:47.679Z,22.20
2018-05-08T19:09:20.221Z,22.10
2018-05-08T19:11:52.613Z,22.00
2018-05-08T19:14:25.320Z,22.00
2018-05-08T19:16:58.417Z,21.80
2018-05-08T19:19:30.893Z,21.80
2018-05-08T19:22:03.308Z,21.70
2018-05-08T19:24:35.746Z,21.60
2018-05-08T19:27:08.112Z,21.70
2018-05-08T19:29:40.568Z,21.50
2018-05-08T19:32:12.945Z,21.50
2018-05-08T19:34:45.291Z,21.40
2018-05-08T19:37:17.602Z,21.40
2018-05-08T19:39:50.281Z,21.30
2018-05-08T19:42:22.674Z,21.20
2018-05-08T19:44:54.976Z,21.20
2018-05-08T19:47:27.249Z,21.00
2018-05-08T19:49:59.605Z,21.00
2018-05-08T19:52:32.674Z,20.90
2018-05-08T19:55:05.201Z,20.80
2018-05-08T19:57:37.537Z,20.90
2018-05-08T20:00:09.883Z,20.80
2018-05-08T20:02:42.212Z,20.70
2018-05-08T20:05:14.691Z,20.60
2018-05-08T20:07:47.026Z,20.50
2018-05-08T20:10:19.414Z,20.50
2018-05-08T20:12:51.718Z,20.40
2018-05-08T20:15:24.038Z,20.30
2018-05-08T20:17:56.322Z,20.30
2018-05-08T20:20:29.461Z,20.10
2018-05-08T20:23:01.713Z,20.00
2018-05-08T20:25:34.422Z,20.00
2018-05-08T20:28:06.686Z,20.00
2018-05-08T20:30:39.086Z,19.90
2018-05-08T20:33:11.355Z,19.80
2018-05-08T20:35:43.719Z,19.70
2018-05-08T20:38:16.083Z,19.70
2018-05-08T20:40:48.394Z,19.60
2018-05-08T20:43:21.502Z,19.30
2018-05-08T20:45:53.875Z,19.30
2018-05-08T20:48:26.240Z,19.10
2018-05-08T20:50:58.546Z,19.00
2018-05-08T20:53:30.838Z,18.80
2018-05-08T20:56:03.232Z,18.60
2018-05-08T20:58:35.576Z,18.50
2018-05-08T21:01:08.076Z,18.40
2018-05-08T21:03:40.375Z,18.30
2018-05-08T21:06:12.759Z,18.20
2018-05-08T21:08:45.160Z,17.90
2018-05-08T21:11:17.531Z,18.00
2018-05-08T21:13:49.819Z,17.90
2018-05-08T21:16:22.125Z,17.80
2018-05-08T21:18:55.131Z,17.90
2018-05-08T21:21:27.395Z,17.90
2018-05-08T21:23:59.654Z,17.90
2018-05-08T21:26:32.031Z,17.90
2018-05-08T21:29:04.456Z,17.90
2018-05-08T21:31:36.774Z,17.80
2018-05-08T21:34:09.734Z,17.80
2018-05-08T21:36:42.023Z,17.70
2018-05-08T21:39:15.160Z,17.60
2018-05-08T21:41:48.269Z,17.50
2018-05-08T21:44:20.613Z,17.50
2018-05-08T21:46:53.034Z,17.60
2018-05-08T21:49:26.157Z,17.70
2018-05-08T21:51:58.492Z,17.70
2018-05-08T21:54:30.761Z,17.80
2018-05-08T21:57:03.150Z,17.80
2018-05-08T21:59:36.295Z,17.50
2018-05-08T22:02:08.690Z,17.50
2018-05-08T22:04:41.159Z,17.50
2018-05-08T22:07:13.544Z,17.40
2018-05-08T22:09:45.792Z,17.40
2018-05-08T22:12:18.300Z,17.30
2018-05-08T22:14:51.425Z,17.10
2018-05-08T22:17:24.234Z,17.00
2018-05-08T22:19:56.695Z,17.20
2018-05-08T22:22:29.338Z,17.10
2018-05-08T22:25:02.746Z,17.20
2018-05-08T22:27:35.541Z,17.10
2018-05-08T22:30:08.137Z,17.20
2018-05-08T22:32:40.777Z,17.20
2018-05-08T22:35:13.170Z,17.10
2018-05-08T22:37:45.894Z,17.00
2018-05-08T22:40:18.944Z,17.00
2018-05-08T22:42:51.292Z,16.90
2018-05-08T22:45:24.349Z,16.60
2018-05-08T22:47:57.042Z,16.60
2018-05-08T22:50:29.520Z,16.60
2018-05-08T22:53:02.389Z,16.60
2018-05-08T22:55:35.135Z,16.50
2018-05-08T22:58:07.614Z,16.30
2018-05-08T23:00:40.066Z,16.20
2018-05-08T23:03:12.771Z,16.30
2018-05-08T23:05:45.335Z,16.40
2018-05-08T23:08:17.816Z,16.50
2018-05-08T23:10:50.182Z,16.40
2018-05-08T23:13:22.564Z,16.40
2018-05-08T23:15:55.215Z,16.40
2018-05-08T23:18:28.116Z,16.30
2018-05-08T23:21:00.780Z,16.30
2018-05-08T23:23:33.441Z,16.30
2018-05-08T23:26:06.686Z,16.10
2018-05-08T23:28:39.239Z,16.10
2018-05-08T23:31:11.565Z,16.00
2018-05-08T23:33:43.970Z,16.20
2018-05-08T23:36:16.663Z,16.20
2018-05-08T23:38:48.972Z,16.20
2018-05-08T23:41:21.341Z,16.10
2018-05-08T23:43:54.154Z,16.00
2018-05-08T23:46:26.737Z,16.00
2018-05-08T23:48:59.223Z,15.90
2018-05-08T23:51:32.359Z,15.80
2018-05-08T23:54:05.077Z,15.80
2018-05-08T23:56:37.581Z,15.70
2018-05-08T23:59:09.904Z,15.70
